Time;durP1;ratioP1;P1;durP2;ratioP2;P2;SDS_P1;SDS_P2;PMS_P1;PMS_P2;Temp;Humidity;BMP_temperature;BMP_pressure;BME280_temperature;BME280_humidity;BME280_pressure;Samples;Min_cycle;Max_cycle;Signal;HPM_P1;HPM_P2
2021/04/23 00:00:45;;;;;;;31.65;23.95;;;;;;;;;;5070791;28;20029;-77
2021/04/23 00:03:18;;;;;;;33.45;25.05;;;;;;;;;;5071037;28;20024;-76
2021/04/23 00:05:44;;;;;;;32.95;24.45;;;;;;;;;;5071649;28;20031;-77
2021/04/23 00:08:11;;;;;;;31.77;24.17;;;;;;;;;;5070214;28;20036;-77
2021/04/23 00:10:37;;;;;;;33.25;24.80;;;;;;;;;;5050591;28;20041;-76
2021/04/23 00:13:03;;;;;;;32.40;25.85;;;;;;;;;;5069598;28;20021;-77
2021/04/23 00:15:30;;;;;;;33.25;26.10;;;;;;;;;;5070186;28;20024;-76
2021/04/23 00:17:55;;;;;;;34.95;25.35;;;;;;;;;;5069212;28;20037;-77
2021/04/23 00:20:23;;;;;;;34.58;26.65;;;;;;;;;;5051525;28;20037;-78
2021/04/23 00:22:49;;;;;;;;;;;;;;;;;;5051445;28;20082;-76
2021/04/23 00:25:25;;;;;;;34.10;25.88;;;;;;;;;;5051095;28;19913;-76
2021/04/23 00:27:51;;;;;;;35.90;25.92;;;;;;;;;;5050739;28;20035;-77
2021/04/23 00:30:18;;;;;;;36.10;26.75;;;;;;;;;;5068640;28;20070;-80
2021/04/23 00:32:53;;;;;;;33.58;25.50;;;;;;;;;;5064699;28;20102;-77
2021/04/23 00:35:20;;;;;;;34.22;26.48;;;;;;;;;;5050964;28;20459;-77
2021/04/23 00:37:47;;;;;;;35.40;26.05;;;;;;;;;;5051548;28;20035;-78
2021/04/23 00:40:15;;;;;;;36.40;26.58;;;;;;;;;;5067332;28;20036;-79
2021/04/23 00:42:41;;;;;;;36.78;27.40;;;;;;;;;;5070084;28;20051;-77
2021/04/23 00:45:08;;;;;;;37.92;27.77;;;;;;;;;;5070307;28;20474;-78
2021/04/23 00:47:34;;;;;;;35.10;27.02;;;;;;;;;;5062995;28;20033;-78
2021/04/23 00:50:00;;;;;;;36.00;26.92;;;;;;;;;;5059428;28;20095;-78
2021/04/23 00:52:26;;;;;;;35.50;27.10;;;;;;;;;;5050657;28;20515;-76
2021/04/23 00:54:52;;;;;;;35.28;27.92;;;;;;;;;;5051671;28;20104;-76
2021/04/23 00:57:18;;;;;;;36.85;27.77;;;;;;;;;;5050787;28;20029;-79
2021/04/23 00:59:44;;;;;;;40.00;27.20;;;;;;;;;;5062431;28;20037;-77
2021/04/23 01:02:14;;;;;;;33.83;26.73;;;;;;;;;;5068875;28;20036;-79
2021/04/23 01:04:41;;;;;;;32.78;25.73;;;;;;;;;;5069814;28;20045;-77
2021/04/23 01:07:07;;;;;;;39.20;27.83;;;;;;;;;;5070653;28;20056;-79
2021/04/23 01:09:33;;;;;;;39.55;27.55;;;;;;;;;;5058876;28;20402;-79
2021/04/23 01:12:00;;;;;;;36.03;27.02;;;;;;;;;;5048877;28;20029;-79
2021/04/23 01:14:26;;;;;;;37.15;26.63;;;;;;;;;;5064155;28;20392;-79
2021/04/23 01:16:52;;;;;;;35.55;24.73;;;;;;;;;;5056758;28;20136;-79
2021/04/23 01:19:20;;;;;;;35.15;27.63;;;;;;;;;;5059155;28;20052;-78
2021/04/23 01:21:46;;;;;;;36.72;27.23;;;;;;;;;;5052916;28;20041;-78
2021/04/23 01:24:13;;;;;;;34.30;27.00;;;;;;;;;;5064233;28;20029;-79
2021/04/23 01:26:41;;;;;;;33.72;27.08;;;;;;;;;;5073219;28;20115;-79
2021/04/23 01:29:08;;;;;;;33.13;26.25;;;;;;;;;;5072980;28;20024;-78
2021/04/23 01:31:37;;;;;;;35.03;27.02;;;;;;;;;;5072102;28;20042;-78
2021/04/23 01:34:06;;;;;;;35.28;25.77;;;;;;;;;;5054892;28;20037;-78
2021/04/23 01:36:33;;;;;;;34.30;25.17;;;;;;;;;;5064453;28;20115;-79
2021/04/23 01:38:59;;;;;;;29.23;23.13;;;;;;;;;;5068142;28;20084;-79
2021/04/23 01:41:25;;;;;;;31.27;24.67;;;;;;;;;;5053708;28;20574;-78
2021/04/23 01:43:51;;;;;;;29.50;22.65;;;;;;;;;;5064774;28;20044;-78
2021/04/23 01:46:17;;;;;;;29.17;20.90;;;;;;;;;;5065575;28;20040;-78
2021/04/23 01:48:43;;;;;;;29.55;21.77;;;;;;;;;;5065713;28;20485;-78
2021/04/23 01:51:10;;;;;;;26.92;22.23;;;;;;;;;;5067141;28;20103;-78
2021/04/23 01:53:37;;;;;;;28.98;23.67;;;;;;;;;;5053880;28;20061;-77
2021/04/23 01:56:03;;;;;;;26.67;22.80;;;;;;;;;;5053907;28;20605;-78
2021/04/23 01:58:29;;;;;;;27.05;22.55;;;;;;;;;;5059290;28;20025;-78
2021/04/23 02:00:57;;;;;;;28.95;23.42;;;;;;;;;;5062238;28;20039;-78
2021/04/23 02:03:23;;;;;;;26.33;21.83;;;;;;;;;;5053668;28;20112;-79
2021/04/23 02:05:51;;;;;;;27.95;21.80;;;;;;;;;;5053667;28;20120;-78
2021/04/23 02:08:17;;;;;;;25.73;21.20;;;;;;;;;;5056366;28;20088;-78
2021/04/23 02:10:45;;;;;;;27.65;23.00;;;;;;;;;;5072907;28;20106;-79
2021/04/23 02:13:12;;;;;;;27.52;22.70;;;;;;;;;;5073033;28;20027;-78
2021/04/23 02:15:38;;;;;;;30.55;22.98;;;;;;;;;;5073588;28;20020;-78
2021/04/23 02:18:04;;;;;;;30.08;24.00;;;;;;;;;;5068010;28;20047;-79
2021/04/23 02:20:33;;;;;;;30.83;23.33;;;;;;;;;;5072947;28;20028;-79
2021/04/23 02:23:00;;;;;;;29.85;23.50;;;;;;;;;;5073530;28;20538;-76
2021/04/23 02:25:27;;;;;;;30.15;23.58;;;;;;;;;;5072582;28;20053;-78
2021/04/23 02:27:53;;;;;;;28.70;22.73;;;;;;;;;;5069624;28;20427;-78
2021/04/23 02:30:27;;;;;;;28.92;23.80;;;;;;;;;;5071484;28;20064;-77
2021/04/23 02:32:54;;;;;;;27.45;23.60;;;;;;;;;;5072802;28;20108;-77
2021/04/23 02:35:20;;;;;;;31.48;24.73;;;;;;;;;;5072649;28;20391;-78
2021/04/23 02:37:46;;;;;;;33.53;24.50;;;;;;;;;;5072316;28;20028;-77
2021/04/23 02:40:14;;;;;;;31.25;24.50;;;;;;;;;;5060778;28;20104;-78
2021/04/23 02:42:40;;;;;;;;;;;;;;;;;;5060528;28;20033;-78
2021/04/23 02:45:08;;;;;;;29.88;23.73;;;;;;;;;;5052495;28;19997;-78
2021/04/23 02:47:34;;;;;;;28.70;23.20;;;;;;;;;;5061360;28;20032;-79
2021/04/23 02:50:00;;;;;;;29.63;23.23;;;;;;;;;;5056939;28;20033;-78
2021/04/23 02:52:26;;;;;;;29.23;22.88;;;;;;;;;;5052259;28;20486;-78
2021/04/23 02:54:52;;;;;;;29.50;24.23;;;;;;;;;;5052998;28;20067;-78
2021/04/23 02:57:18;;;;;;;30.33;24.42;;;;;;;;;;5052552;28;20044;-77
2021/04/23 02:59:45;;;;;;;34.40;25.20;;;;;;;;;;5065724;28;20907;-78
2021/04/23 03:02:11;;;;;;;33.53;25.63;;;;;;;;;;5060022;28;20025;-79
2021/04/23 03:04:37;;;;;;;31.42;26.52;;;;;;;;;;5072410;28;20068;-78
2021/04/23 03:07:03;;;;;;;36.42;27.60;;;;;;;;;;5071455;28;20111;-78
2021/04/23 03:09:29;;;;;;;39.25;27.75;;;;;;;;;;5060587;28;20485;-77
2021/04/23 03:11:55;;;;;;;36.65;28.00;;;;;;;;;;5067031;28;20025;-77
2021/04/23 03:14:22;;;;;;;40.67;26.95;;;;;;;;;;5063930;28;20033;-78
2021/04/23 03:16:48;;;;;;;33.93;27.40;;;;;;;;;;5055272;28;20082;-78
2021/04/23 03:19:15;;;;;;;34.90;26.75;;;;;;;;;;5070498;28;20497;-78
2021/04/23 03:21:43;;;;;;;37.33;27.42;;;;;;;;;;5072300;28;20029;-78
2021/04/23 03:24:10;;;;;;;34.30;27.67;;;;;;;;;;5071775;28;20502;-77
2021/04/23 03:26:37;;;;;;;38.67;27.35;;;;;;;;;;5058496;28;20270;-78
2021/04/23 03:29:04;;;;;;;37.43;28.63;;;;;;;;;;5062208;28;20691;-78
2021/04/23 03:31:30;;;;;;;37.17;28.83;;;;;;;;;;5055917;28;20032;-78
2021/04/23 03:33:56;;;;;;;36.22;28.50;;;;;;;;;;5067732;28;20324;-78
2021/04/23 03:36:22;;;;;;;35.33;28.45;;;;;;;;;;5072190;28;20056;-78
2021/04/23 03:38:50;;;;;;;31.77;26.80;;;;;;;;;;5063344;28;20529;-78
2021/04/23 03:41:21;;;;;;;36.03;27.90;;;;;;;;;;5071738;28;20032;-78
2021/04/23 03:43:47;;;;;;;37.20;28.52;;;;;;;;;;5057735;28;20590;-78
2021/04/23 03:46:14;;;;;;;36.45;27.27;;;;;;;;;;5059714;28;20131;-78
2021/04/23 03:48:40;;;;;;;39.87;28.63;;;;;;;;;;5058830;28;20036;-78
2021/04/23 03:51:07;;;;;;;41.45;28.48;;;;;;;;;;5070936;28;20107;-78
2021/04/23 03:53:33;;;;;;;39.30;27.90;;;;;;;;;;5059962;28;20426;-77
2021/04/23 03:56:00;;;;;;;41.88;30.02;;;;;;;;;;5071690;28;20025;-78
2021/04/23 03:58:26;;;;;;;35.15;27.42;;;;;;;;;;5065470;28;20036;-79
2021/04/23 04:00:55;;;;;;;40.33;29.52;;;;;;;;;;5050921;28;20387;-77
2021/04/23 04:03:21;;;;;;;40.67;29.33;;;;;;;;;;5069462;28;20050;-78
2021/04/23 04:05:47;;;;;;;41.92;31.15;;;;;;;;;;5070800;28;20485;-77
2021/04/23 04:08:13;;;;;;;47.75;30.70;;;;;;;;;;5067291;28;20491;-78
2021/04/23 04:10:40;;;;;;;38.90;29.27;;;;;;;;;;5067217;28;20040;-78
2021/04/23 04:13:06;;;;;;;39.10;29.90;;;;;;;;;;5071118;28;20040;-78
2021/04/23 04:15:32;;;;;;;39.17;29.73;;;;;;;;;;5070816;28;20074;-78
2021/04/23 04:17:58;;;;;;;36.63;26.80;;;;;;;;;;5069627;28;20047;-78
2021/04/23 04:20:25;;;;;;;39.80;27.92;;;;;;;;;;5050792;28;20549;-77
2021/04/23 04:22:52;;;;;;;36.72;28.02;;;;;;;;;;5052700;28;20036;-77
2021/04/23 04:25:20;;;;;;;37.35;27.38;;;;;;;;;;5051721;28;20597;-77
2021/04/23 04:27:46;;;;;;;39.58;28.15;;;;;;;;;;5056049;28;20047;-77
2021/04/23 04:30:13;;;;;;;38.60;28.23;;;;;;;;;;5050904;28;20036;-77
2021/04/23 04:32:39;;;;;;;39.75;29.27;;;;;;;;;;5050672;28;20049;-75
2021/04/23 04:35:06;;;;;;;38.67;29.35;;;;;;;;;;5060743;28;20033;-77
2021/04/23 04:37:32;;;;;;;41.53;30.77;;;;;;;;;;5071130;28;20359;-77
2021/04/23 04:39:58;;;;;;;34.80;27.95;;;;;;;;;;5052782;28;20086;-78
2021/04/23 04:42:25;;;;;;;37.65;27.88;;;;;;;;;;5053282;28;20470;-77
2021/04/23 04:44:51;;;;;;;37.15;29.08;;;;;;;;;;5062801;28;20040;-77
2021/04/23 04:47:18;;;;;;;38.47;28.48;;;;;;;;;;5050884;28;20109;-77
2021/04/23 04:49:44;;;;;;;41.05;29.60;;;;;;;;;;5065003;28;20044;-77
2021/04/23 04:52:10;;;;;;;44.50;31.92;;;;;;;;;;5070145;28;20032;-76
2021/04/23 04:54:36;;;;;;;39.97;29.13;;;;;;;;;;5065205;28;20411;-77
2021/04/23 04:57:02;;;;;;;39.45;29.70;;;;;;;;;;5070611;28;20024;-77
2021/04/23 04:59:28;;;;;;;41.67;31.05;;;;;;;;;;5057323;28;20045;-77
2021/04/23 05:01:54;;;;;;;45.15;32.75;;;;;;;;;;5062534;28;20036;-76
2021/04/23 05:04:20;;;;;;;43.30;29.85;;;;;;;;;;5056135;28;20159;-76
2021/04/23 05:06:47;;;;;;;43.83;31.10;;;;;;;;;;5075117;28;20033;-76
2021/04/23 05:09:14;;;;;;;42.65;28.77;;;;;;;;;;5063844;28;20111;-76
2021/04/23 05:11:40;;;;;;;48.85;30.98;;;;;;;;;;5057545;28;20057;-76
2021/04/23 05:14:06;;;;;;;40.22;31.75;;;;;;;;;;5050256;28;20037;-75
2021/04/23 05:16:32;;;;;;;40.42;30.48;;;;;;;;;;5062376;28;20016;-76
2021/04/23 05:18:58;;;;;;;46.40;31.15;;;;;;;;;;5059077;28;20417;-76
2021/04/23 05:21:24;;;;;;;38.33;29.00;;;;;;;;;;5055934;28;20478;-70
2021/04/23 05:23:50;;;;;;;39.25;28.13;;;;;;;;;;5059132;28;20538;-70
2021/04/23 05:26:16;;;;;;;37.08;26.73;;;;;;;;;;5052737;28;20125;-70
2021/04/23 05:28:42;;;;;;;32.90;25.35;;;;;;;;;;5053646;28;20366;-71
2021/04/23 05:31:08;;;;;;;33.97;26.48;;;;;;;;;;5052908;28;20108;-71
2021/04/23 05:33:34;;;;;;;34.70;26.52;;;;;;;;;;5050534;28;20037;-70
2021/04/23 05:36:00;;;;;;;38.38;27.73;;;;;;;;;;5050892;28;20064;-71
2021/04/23 05:38:26;;;;;;;35.25;26.90;;;;;;;;;;5050026;28;20021;-70
2021/04/23 05:40:53;;;;;;;35.20;26.95;;;;;;;;;;5048697;28;20029;-71
2021/04/23 05:43:19;;;;;;;35.20;28.58;;;;;;;;;;5059389;28;20024;-72
2021/04/23 05:45:46;;;;;;;39.80;27.08;;;;;;;;;;5052053;28;20053;-71
2021/04/23 05:48:13;;;;;;;37.85;28.20;;;;;;;;;;5053047;28;20021;-71
2021/04/23 05:50:39;;;;;;;34.35;26.55;;;;;;;;;;5069534;28;20060;-71
2021/04/23 05:53:06;;;;;;;31.30;25.95;;;;;;;;;;5066573;28;20382;-70
2021/04/23 05:55:32;;;;;;;31.15;26.35;;;;;;;;;;5069852;28;20379;-69
2021/04/23 05:57:59;;;;;;;35.40;27.88;;;;;;;;;;5070295;28;20062;-71
2021/04/23 06:00:26;;;;;;;35.83;28.75;;;;;;;;;;5069798;28;20470;-70
2021/04/23 06:02:53;;;;;;;38.72;30.00;;;;;;;;;;5070141;28;20056;-71
2021/04/23 06:05:20;;;;;;;42.20;27.52;;;;;;;;;;5068255;28;20132;-71
2021/04/23 06:07:46;;;;;;;43.83;28.10;;;;;;;;;;5069655;28;20031;-71
2021/04/23 06:10:12;;;;;;;38.15;26.80;;;;;;;;;;5061959;28;20054;-71
2021/04/23 06:12:39;;;;;;;41.23;25.43;;;;;;;;;;5071521;28;20013;-71
2021/04/23 06:15:06;;;;;;;31.23;26.15;;;;;;;;;;5071385;28;20036;-71
2021/04/23 06:17:32;;;;;;;30.65;25.00;;;;;;;;;;5063759;28;20025;-71
2021/04/23 06:19:58;;;;;;;39.72;29.83;;;;;;;;;;5052217;28;20029;-72
2021/04/23 06:22:24;;;;;;;34.80;24.63;;;;;;;;;;5080678;28;20742;-71
2021/04/23 06:24:50;;;;;;;29.55;23.42;;;;;;;;;;5093446;28;20042;-71
2021/04/23 06:27:16;;;;;;;29.65;23.77;;;;;;;;;;5089846;28;20040;-71
2021/04/23 06:29:43;;;;;;;29.25;23.35;;;;;;;;;;5072929;28;20028;-70
2021/04/23 06:32:09;;;;;;;28.50;22.73;;;;;;;;;;5073047;28;20029;-71
2021/04/23 06:34:35;;;;;;;37.53;26.80;;;;;;;;;;5066673;28;20670;-71
2021/04/23 06:37:01;;;;;;;29.00;22.67;;;;;;;;;;5054021;28;20037;-72
2021/04/23 06:39:27;;;;;;;30.13;23.10;;;;;;;;;;5062641;28;20028;-71
2021/04/23 06:41:53;;;;;;;34.70;24.98;;;;;;;;;;5071724;28;20028;-70
2021/04/23 06:44:19;;;;;;;27.33;21.90;;;;;;;;;;5073030;28;20060;-73
2021/04/23 06:46:46;;;;;;;29.85;22.83;;;;;;;;;;5063419;28;20174;-72
2021/04/23 06:49:12;;;;;;;29.58;22.55;;;;;;;;;;5071138;28;20462;-73
2021/04/23 06:51:38;;;;;;;29.27;21.17;;;;;;;;;;5068669;28;20033;-73
2021/04/23 06:54:05;;;;;;;25.00;20.95;;;;;;;;;;5065669;28;20021;-70
2021/04/23 06:56:32;;;;;;;28.90;23.15;;;;;;;;;;5067130;28;20064;-72
2021/04/23 06:58:58;;;;;;;28.33;22.90;;;;;;;;;;5072703;28;20044;-72
2021/04/23 07:01:24;;;;;;;29.42;23.17;;;;;;;;;;5071817;28;20032;-72
2021/04/23 07:03:50;;;;;;;29.08;22.73;;;;;;;;;;5072263;28;20080;-71
2021/04/23 07:06:16;;;;;;;33.25;23.63;;;;;;;;;;5072218;28;20066;-71
2021/04/23 07:08:41;;;;;;;30.02;23.70;;;;;;;;;;5072023;28;20040;-72
2021/04/23 07:11:08;;;;;;;30.45;24.33;;;;;;;;;;5072297;28;20028;-70
2021/04/23 07:13:34;;;;;;;31.33;23.63;;;;;;;;;;5072059;28;20457;-72
2021/04/23 07:16:00;;;;;;;26.90;22.55;;;;;;;;;;5072037;28;20037;-72
2021/04/23 07:18:29;;;;;;;28.73;23.10;;;;;;;;;;5071910;28;20047;-72
2021/04/23 07:20:55;;;;;;;27.60;22.77;;;;;;;;;;5072333;28;20046;-71
2021/04/23 07:23:21;;;;;;;25.20;22.33;;;;;;;;;;5072162;28;20028;-71
2021/04/23 07:25:47;;;;;;;28.73;23.35;;;;;;;;;;5071628;28;20097;-71
2021/04/23 07:28:13;;;;;;;31.27;25.85;;;;;;;;;;5071688;28;20035;-72
2021/04/23 07:30:40;;;;;;;32.47;24.38;;;;;;;;;;5071406;28;20028;-71
2021/04/23 07:33:09;;;;;;;30.45;24.42;;;;;;;;;;5071581;28;20506;-71
2021/04/23 07:35:36;;;;;;;30.40;23.73;;;;;;;;;;5071589;28;20074;-71
2021/04/23 07:38:02;;;;;;;31.73;25.30;;;;;;;;;;5071634;28;20032;-71
2021/04/23 07:40:29;;;;;;;30.52;25.10;;;;;;;;;;5068093;28;20044;-72
2021/04/23 07:42:55;;;;;;;33.40;26.35;;;;;;;;;;5058002;28;20036;-69
2021/04/23 07:45:21;;;;;;;39.15;25.92;;;;;;;;;;5066923;28;20540;-70
2021/04/23 07:47:47;;;;;;;34.03;24.75;;;;;;;;;;5071418;28;20055;-72
2021/04/23 07:50:14;;;;;;;29.83;24.70;;;;;;;;;;5066067;28;20574;-71
2021/04/23 07:52:41;;;;;;;31.45;25.83;;;;;;;;;;5053832;28;20021;-71
2021/04/23 07:55:08;;;;;;;32.47;24.65;;;;;;;;;;5055357;28;20028;-71
2021/04/23 07:57:35;;;;;;;30.60;25.02;;;;;;;;;;5062797;28;20035;-70
2021/04/23 08:00:01;;;;;;;30.80;24.33;;;;;;;;;;5071034;28;20044;-71
2021/04/23 08:02:27;;;;;;;29.02;24.67;;;;;;;;;;5073268;28;20071;-71
2021/04/23 08:04:53;;;;;;;30.35;24.52;;;;;;;;;;5065948;28;20135;-71
2021/04/23 08:07:19;;;;;;;31.85;25.92;;;;;;;;;;5053560;28;20025;-71
2021/04/23 08:09:45;;;;;;;34.95;26.10;;;;;;;;;;5056649;28;20028;-72
2021/04/23 08:12:12;;;;;;;29.77;24.98;;;;;;;;;;5089637;28;20046;-72
2021/04/23 08:14:38;;;;;;;30.38;25.83;;;;;;;;;;5091151;28;20028;-74
2021/04/23 08:17:04;;;;;;;33.30;25.58;;;;;;;;;;5070930;28;20048;-73
2021/04/23 08:19:30;;;;;;;37.53;26.85;;;;;;;;;;5058602;28;20112;-73
2021/04/23 08:21:56;;;;;;;32.45;26.33;;;;;;;;;;5069999;28;20078;-72
2021/04/23 08:24:23;;;;;;;31.33;26.52;;;;;;;;;;5070253;28;20394;-73
2021/04/23 08:26:49;;;;;;;33.90;26.25;;;;;;;;;;5065820;28;20120;-72
2021/04/23 08:29:15;;;;;;;33.00;26.33;;;;;;;;;;5063092;28;20187;-73
2021/04/23 08:31:42;;;;;;;32.10;26.77;;;;;;;;;;5070404;28;20028;-72
2021/04/23 08:34:08;;;;;;;31.50;25.60;;;;;;;;;;5067125;28;20068;-73
2021/04/23 08:36:35;;;;;;;30.77;25.48;;;;;;;;;;5063237;28;20540;-73
2021/04/23 08:39:03;;;;;;;38.88;26.95;;;;;;;;;;5055896;28;20471;-72
2021/04/23 08:41:29;;;;;;;34.85;26.40;;;;;;;;;;5059162;28;20021;-72
2021/04/23 08:43:55;;;;;;;33.38;24.90;;;;;;;;;;5070698;28;20529;-72
2021/04/23 08:46:21;;;;;;;33.17;26.30;;;;;;;;;;5065784;28;20025;-72
2021/04/23 08:48:49;;;;;;;32.70;26.50;;;;;;;;;;5069181;28;20036;-72
2021/04/23 08:51:15;;;;;;;31.42;26.75;;;;;;;;;;5057933;28;20028;-72
2021/04/23 08:53:42;;;;;;;35.20;26.30;;;;;;;;;;5067952;28;20044;-73
2021/04/23 08:56:08;;;;;;;33.53;25.63;;;;;;;;;;5070231;28;20063;-72
2021/04/23 08:58:34;;;;;;;33.05;27.20;;;;;;;;;;5070469;28;20028;-72
2021/04/23 09:01:00;;;;;;;36.80;26.75;;;;;;;;;;5057247;28;20033;-72
2021/04/23 09:03:26;;;;;;;30.70;25.58;;;;;;;;;;5062303;28;20501;-71
2021/04/23 09:06:07;;;;;;;32.83;26.25;;;;;;;;;;5069927;28;20042;-73
2021/04/23 09:08:36;;;;;;;33.15;26.08;;;;;;;;;;5061443;28;20027;-72
2021/04/23 09:11:19;;;;;;;27.25;23.45;;;;;;;;;;5054163;28;20053;-73
2021/04/23 09:13:56;;;;;;;31.13;24.90;;;;;;;;;;5051637;28;20112;-72
2021/04/23 09:16:23;;;;;;;33.90;25.05;;;;;;;;;;5051750;28;20104;-72
2021/04/23 09:18:49;;;;;;;32.35;26.42;;;;;;;;;;5069838;28;20032;-72
2021/04/23 09:21:16;;;;;;;33.58;26.48;;;;;;;;;;5068040;28;20024;-72
2021/04/23 09:23:50;;;;;;;98.10;55.53;;;;;;;;;;5059891;28;20036;-72
2021/04/23 09:26:36;;;;;;;32.25;26.02;;;;;;;;;;5056947;28;20480;-72
2021/04/23 09:29:03;;;;;;;31.27;25.83;;;;;;;;;;5069116;28;20050;-74
2021/04/23 09:31:30;;;;;;;32.28;25.77;;;;;;;;;;5059524;28;20033;-73
2021/04/23 09:34:05;;;;;;;33.00;25.85;;;;;;;;;;5061341;28;20096;-73
2021/04/23 09:36:33;;;;;;;37.58;26.77;;;;;;;;;;5058276;28;20037;-74
2021/04/23 09:39:22;;;;;;;32.67;25.90;;;;;;;;;;5052070;28;20103;-74
2021/04/23 09:41:48;;;;;;;33.97;26.13;;;;;;;;;;5063855;28;20063;-74
2021/04/23 09:44:29;;;;;;;34.03;26.67;;;;;;;;;;5068043;28;20040;-73
2021/04/23 09:47:01;;;;;;;30.92;26.05;;;;;;;;;;5071838;28;20042;-74
2021/04/23 09:49:28;;;;;;;34.30;27.15;;;;;;;;;;5068814;28;20037;-73
2021/04/23 09:51:54;;;;;;;38.95;28.17;;;;;;;;;;5069349;28;20036;-73
2021/04/23 09:54:22;;;;;;;32.23;27.87;;;;;;;;;;5053819;28;20021;-73
2021/04/23 09:56:48;;;;;;;;;;;;;;;;;;5061595;28;20040;-74
2021/04/23 09:59:15;;;;;;;38.88;26.90;;;;;;;;;;5062531;28;19909;-74
2021/04/23 10:02:00;;;;;;;32.88;27.60;;;;;;;;;;5071016;28;20032;-74
2021/04/23 10:04:30;;;;;;;29.17;25.05;;;;;;;;;;5057916;28;20052;-73
2021/04/23 10:07:12;;;;;;;29.42;23.92;;;;;;;;;;5067738;28;20033;-74
2021/04/23 10:09:48;;;;;;;30.75;25.02;;;;;;;;;;5078528;28;20039;-73
2021/04/23 10:12:33;;;;;;;36.00;25.80;;;;;;;;;;5080690;28;20625;-74
2021/04/23 10:15:00;;;;;;;31.13;26.02;;;;;;;;;;5070375;28;20029;-73
2021/04/23 10:17:29;;;;;;;26.38;23.35;;;;;;;;;;5073072;28;20471;-74
2021/04/23 10:19:55;;;;;;;29.83;24.35;;;;;;;;;;5080795;28;20500;-74
2021/04/23 10:22:22;;;;;;;29.27;23.70;;;;;;;;;;5075188;28;20025;-73
2021/04/23 10:24:49;;;;;;;35.45;24.63;;;;;;;;;;5080533;28;20070;-74
2021/04/23 10:27:16;;;;;;;26.20;23.15;;;;;;;;;;5077222;28;20102;-74
2021/04/23 10:29:44;;;;;;;29.40;24.08;;;;;;;;;;5066781;28;20070;-75
2021/04/23 10:32:10;;;;;;;26.88;23.13;;;;;;;;;;5061387;28;20033;-74
2021/04/23 10:34:37;;;;;;;28.13;23.55;;;;;;;;;;5054278;28;20033;-77
2021/04/23 10:37:04;;;;;;;28.23;22.55;;;;;;;;;;5068732;28;20025;-75
2021/04/23 10:39:33;;;;;;;33.30;22.17;;;;;;;;;;5056271;28;20033;-74
2021/04/23 10:41:59;;;;;;;26.35;22.35;;;;;;;;;;5057446;28;20032;-74
2021/04/23 10:44:45;;;;;;;30.63;22.00;;;;;;;;;;5068103;28;20751;-73
2021/04/23 10:47:11;;;;;;;26.13;22.67;;;;;;;;;;5071338;28;20348;-73
2021/04/23 10:49:57;;;;;;;26.38;22.40;;;;;;;;;;5090090;28;20468;-73
2021/04/23 10:52:23;;;;;;;26.05;22.42;;;;;;;;;;5092348;28;20050;-73
2021/04/23 10:55:18;;;;;;;24.15;20.80;;;;;;;;;;5069523;28;20081;-74
2021/04/23 10:57:54;;;;;;;24.52;20.85;;;;;;;;;;5056817;28;20033;-72
2021/04/23 11:00:52;;;;;;;25.42;20.42;;;;;;;;;;5072504;28;20074;-71
2021/04/23 11:03:18;;;;;;;23.55;20.38;;;;;;;;;;5059903;28;20045;-74
2021/04/23 11:05:45;;;;;;;23.77;21.20;;;;;;;;;;5054637;28;20037;-72
2021/04/23 11:08:11;;;;;;;23.13;20.63;;;;;;;;;;5052675;28;20042;-73
2021/04/23 11:10:55;;;;;;;23.95;20.15;;;;;;;;;;5050406;28;20128;-74
2021/04/23 11:13:22;;;;;;;23.75;20.23;;;;;;;;;;5052554;28;20025;-74
2021/04/23 11:16:08;;;;;;;26.33;21.00;;;;;;;;;;5052295;28;20079;-73
2021/04/23 11:18:34;;;;;;;27.23;21.13;;;;;;;;;;5053939;28;20051;-73
2021/04/23 11:21:20;;;;;;;24.60;20.95;;;;;;;;;;5071748;28;20139;-74
2021/04/23 11:24:05;;;;;;;26.27;21.77;;;;;;;;;;5068248;28;20041;-74
2021/04/23 11:26:50;;;;;;;24.00;21.33;;;;;;;;;;5054209;28;20036;-72
2021/04/23 11:29:16;;;;;;;28.88;19.98;;;;;;;;;;5071940;28;20025;-72
2021/04/23 11:32:01;;;;;;;22.02;19.05;;;;;;;;;;5067732;28;20036;-74
2021/04/23 11:34:31;;;;;;;23.33;20.83;;;;;;;;;;5062565;28;20028;-74
2021/04/23 11:37:01;;;;;;;23.30;19.80;;;;;;;;;;5073730;28;20070;-75
2021/04/23 11:39:30;;;;;;;24.13;19.30;;;;;;;;;;5092063;28;20509;-75
2021/04/23 11:42:15;;;;;;;23.77;18.65;;;;;;;;;;5091399;28;20028;-75
2021/04/23 11:45:00;;;;;;;22.20;18.98;;;;;;;;;;5080053;28;20041;-75
2021/04/23 11:47:26;;;;;;;20.25;18.13;;;;;;;;;;5064290;28;20036;-74
2021/04/23 11:50:01;;;;;;;23.55;20.52;;;;;;;;;;5071457;28;20027;-75
2021/04/23 11:52:28;;;;;;;23.55;19.25;;;;;;;;;;5063180;28;20108;-75
2021/04/23 11:54:54;;;;;;;20.42;17.90;;;;;;;;;;5068583;28;20536;-76
2021/04/23 11:57:26;;;;;;;24.20;19.65;;;;;;;;;;5068635;28;20033;-75
2021/04/23 12:00:00;;;;;;;21.92;19.20;;;;;;;;;;5065429;28;20472;-75
2021/04/23 12:02:45;;;;;;;20.30;18.25;;;;;;;;;;5059875;28;20398;-74
2021/04/23 12:05:21;;;;;;;20.05;17.00;;;;;;;;;;5070142;28;20048;-75
2021/04/23 12:07:47;;;;;;;17.63;15.70;;;;;;;;;;5091202;28;20119;-75
2021/04/23 12:10:14;;;;;;;20.92;17.33;;;;;;;;;;5090243;28;20453;-76
2021/04/23 12:12:45;;;;;;;18.23;16.30;;;;;;;;;;5085020;28;20059;-75
2021/04/23 12:15:21;;;;;;;20.15;17.42;;;;;;;;;;5070982;28;20416;-76
2021/04/23 12:17:47;;;;;;;19.52;17.40;;;;;;;;;;5054786;28;20475;-76
2021/04/23 12:20:17;;;;;;;19.88;17.60;;;;;;;;;;5074410;28;20078;-76
2021/04/23 12:22:43;;;;;;;20.27;18.08;;;;;;;;;;5074418;28;20120;-76
2021/04/23 12:25:16;;;;;;;23.00;18.43;;;;;;;;;;5082521;28;20033;-75
2021/04/23 12:27:42;;;;;;;18.98;17.13;;;;;;;;;;5065558;28;20535;-76
2021/04/23 12:30:09;;;;;;;20.33;18.23;;;;;;;;;;5050768;28;20078;-75
2021/04/23 12:32:35;;;;;;;20.38;17.35;;;;;;;;;;5075550;28;20394;-76
2021/04/23 12:35:01;;;;;;;18.85;17.05;;;;;;;;;;5072957;28;20021;-75
2021/04/23 12:37:28;;;;;;;20.65;18.55;;;;;;;;;;5070701;28;20111;-75
2021/04/23 12:39:54;;;;;;;19.95;17.85;;;;;;;;;;5070320;28;20031;-75
2021/04/23 12:42:26;;;;;;;22.05;18.13;;;;;;;;;;5050666;28;20079;-75
2021/04/23 12:44:59;;;;;;;19.67;17.60;;;;;;;;;;5057842;28;20032;-75
2021/04/23 12:47:25;;;;;;;17.77;15.98;;;;;;;;;;5054267;28;20082;-75
2021/04/23 12:49:51;;;;;;;18.33;16.45;;;;;;;;;;5065076;28;20028;-76
2021/04/23 12:52:18;;;;;;;21.33;16.20;;;;;;;;;;5056680;28;20395;-76
2021/04/23 12:54:46;;;;;;;17.73;14.43;;;;;;;;;;5066447;28;20596;-73
2021/04/23 12:57:14;;;;;;;19.08;15.70;;;;;;;;;;5070254;28;20407;-73
2021/04/23 12:59:47;;;;;;;21.00;16.00;;;;;;;;;;5070510;28;20095;-75
2021/04/23 13:02:14;;;;;;;18.33;16.48;;;;;;;;;;5069890;28;20032;-76
2021/04/23 13:04:40;;;;;;;19.20;16.95;;;;;;;;;;5068888;28;20045;-75
2021/04/23 13:07:10;;;;;;;18.30;15.88;;;;;;;;;;5059943;28;20496;-75
2021/04/23 13:09:36;;;;;;;18.23;15.48;;;;;;;;;;5070596;28;20419;-76
2021/04/23 13:12:23;;;;;;;17.08;15.32;;;;;;;;;;5068774;28;20113;-75
2021/04/23 13:14:49;;;;;;;;;;;;;;;;;;5069967;28;20045;-75
2021/04/23 13:17:15;;;;;;;16.67;14.73;;;;;;;;;;5070776;28;19908;-75
2021/04/23 13:19:42;;;;;;;17.98;16.23;;;;;;;;;;5070471;28;20047;-75
2021/04/23 13:22:20;;;;;;;21.75;16.35;;;;;;;;;;5071855;28;20024;-75
2021/04/23 13:24:46;;;;;;;16.60;14.80;;;;;;;;;;5073841;28;20083;-75
2021/04/23 13:27:27;;;;;;;18.07;15.70;;;;;;;;;;5074097;28;20451;-76
2021/04/23 13:29:53;;;;;;;17.00;14.02;;;;;;;;;;5074345;28;20031;-74
2021/04/23 13:32:19;;;;;;;16.27;14.63;;;;;;;;;;5067960;28;20033;-74
2021/04/23 13:34:54;;;;;;;15.73;13.95;;;;;;;;;;5054201;28;20033;-74
2021/04/23 13:37:33;;;;;;;15.23;13.13;;;;;;;;;;5054005;28;20028;-73
2021/04/23 13:40:22;;;;;;;13.52;12.02;;;;;;;;;;5053623;28;20067;-73
2021/04/23 13:42:48;;;;;;;14.05;12.80;;;;;;;;;;5053530;28;20032;-72
2021/04/23 13:45:14;;;;;;;14.45;12.95;;;;;;;;;;5053836;28;21541;-73
2021/04/23 13:47:40;;;;;;;;;;;;;;;;;;5055630;28;20039;-72
2021/04/23 13:50:14;;;;;;;13.65;12.35;;;;;;;;;;5073428;28;20346;-73
2021/04/23 13:52:47;;;;;;;14.38;12.68;;;;;;;;;;5073802;28;20025;-73
2021/04/23 13:55:16;;;;;;;14.00;12.23;;;;;;;;;;5072578;28;20032;-72
2021/04/23 13:58:00;;;;;;;16.35;13.65;;;;;;;;;;5073682;28;20036;-72
2021/04/23 14:00:27;;;;;;;15.73;13.98;;;;;;;;;;5073577;28;20378;-75
2021/04/23 14:02:59;;;;;;;16.33;13.52;;;;;;;;;;5067721;28;20055;-72
2021/04/23 14:05:25;;;;;;;16.50;14.65;;;;;;;;;;5073637;28;20833;-74
2021/04/23 14:07:51;;;;;;;19.25;12.43;;;;;;;;;;5073473;28;20501;-72
2021/04/23 14:10:17;;;;;;;14.93;13.25;;;;;;;;;;5073071;28;20032;-72
2021/04/23 14:12:43;;;;;;;15.15;13.18;;;;;;;;;;5073454;28;20032;-73
2021/04/23 14:15:10;;;;;;;14.68;13.18;;;;;;;;;;5059308;28;20040;-73
2021/04/23 14:17:36;;;;;;;15.40;13.80;;;;;;;;;;5053453;28;20037;-73
2021/04/23 14:20:02;;;;;;;15.77;13.52;;;;;;;;;;5051810;28;20430;-72
2021/04/23 14:22:28;;;;;;;16.90;12.43;;;;;;;;;;5053049;28;20433;-73
2021/04/23 14:24:54;;;;;;;14.32;12.90;;;;;;;;;;5053374;28;20036;-73